Time;durP1;ratioP1;P1;durP2;ratioP2;P2;SDS_P1;SDS_P2;PMS_P1;PMS_P2;Temp;Humidity;BMP_temperature;BMP_pressure;BME280_temperature;BME280_humidity;BME280_pressure;Samples;Min_cycle;Max_cycle;Signal;HPM_P1;HPM_P2
2023/10/15 00:02:34;;;;;;;10.10;0.70;;;7.40;99.90;;;;;;6139050;23;20644;-95
2023/10/15 02:10:00;;;;;;;9.35;0.57;;;7.30;99.90;;;;;;6069902;23;20383;-95
2023/10/15 02:12:31;;;;;;;6.40;0.40;;;7.30;99.90;;;;;;6046255;23;20383;-95
2023/10/15 02:14:58;;;;;;;8.43;0.50;;;7.50;99.90;;;;;;6042192;23;20443;-94
2023/10/15 02:17:24;;;;;;;7.35;0.73;;;7.40;99.90;;;;;;6043135;23;20967;-93
2023/10/15 02:19:55;;;;;;;3.63;0.20;;;7.40;99.90;;;;;;6056734;23;20397;-92
2023/10/15 02:22:23;;;;;;;4.10;0.38;;;7.50;99.90;;;;;;6129256;23;21237;-96
2023/10/15 02:24:56;;;;;;;3.70;0.40;;;7.10;99.90;;;;;;6129624;23;20377;-96
2023/10/15 02:27:25;;;;;;;5.18;0.30;;;7.30;99.90;;;;;;6130615;23;20958;-96
2023/10/15 02:29:54;;;;;;;3.00;0.22;;;6.90;99.90;;;;;;6129202;23;20408;-92
2023/10/15 02:34:53;;;;;;;3.30;0.10;;;6.80;99.90;;;;;;6154240;23;20925;-93
2023/10/15 02:37:27;;;;;;;3.50;0.10;;;6.80;99.90;;;;;;6127232;23;20452;-94
2023/10/15 02:39:59;;;;;;;2.88;0.20;;;6.80;99.90;;;;;;6130467;23;20905;-91
2023/10/15 02:42:31;;;;;;;4.63;0.20;;;6.80;99.90;;;;;;6127116;23;20376;-93
2023/10/15 02:45:06;;;;;;;3.38;0.20;;;6.70;99.90;;;;;;6129511;23;20370;-94
2023/10/15 02:47:41;;;;;;;7.53;0.40;;;6.70;99.90;;;;;;6129947;23;20369;-93
2023/10/15 02:50:09;;;;;;;3.72;0.20;;;6.70;99.90;;;;;;6127713;23;20399;-92
2023/10/15 02:52:35;;;;;;;4.13;0.20;;;6.70;99.90;;;;;;6130022;23;20428;-92
2023/10/15 02:55:09;;;;;;;4.35;0.20;;;6.70;99.90;;;;;;6127370;23;20710;-92
2023/10/15 02:57:38;;;;;;;5.88;0.38;;;6.70;99.90;;;;;;6129854;23;20405;-92
2023/10/15 03:00:28;;;;;;;5.65;0.30;;;6.70;99.90;;;;;;6128792;23;20483;-92
2023/10/15 03:02:58;;;;;;;3.92;0.20;;;6.70;99.90;;;;;;6127875;23;20860;-92
2023/10/15 03:05:38;;;;;;;4.88;0.20;;;6.70;99.90;;;;;;6129521;23;20850;-91
2023/10/15 03:08:04;;;;;;;6.05;0.32;;;6.80;99.90;;;;;;6100860;23;20383;-90
2023/10/15 03:10:45;;;;;;;5.13;0.30;;;6.80;99.90;;;;;;6099965;23;20411;-92
2023/10/15 03:13:14;;;;;;;5.78;0.22;;;6.80;99.90;;;;;;6099002;23;20371;-91
2023/10/15 03:15:48;;;;;;;3.75;0.30;;;6.80;99.90;;;;;;6098128;23;20367;-93
2023/10/15 03:18:23;;;;;;;3.73;0.30;;;6.70;99.90;;;;;;6101535;23;20748;-93
2023/10/15 03:21:14;;;;;;;5.57;0.40;;;6.70;99.90;;;;;;6098392;23;20430;-92
2023/10/15 03:23:42;;;;;;;6.35;0.30;;;6.50;99.90;;;;;;6084406;23;20473;-92
2023/10/15 03:26:17;;;;;;;7.88;0.30;;;6.70;99.90;;;;;;6094371;23;20432;-92
2023/10/15 03:28:45;;;;;;;8.30;0.75;;;6.80;99.90;;;;;;6093915;23;20381;-92
2023/10/15 03:31:14;;;;;;;5.95;0.30;;;6.80;99.90;;;;;;6095399;23;21088;-93
2023/10/15 03:33:58;;;;;;;6.45;0.40;;;6.90;99.90;;;;;;6098192;23;20390;-92
2023/10/15 03:36:25;;;;;;;5.38;0.30;;;6.90;99.90;;;;;;6100279;23;20394;-93
2023/10/15 03:38:51;;;;;;;8.77;0.50;;;6.90;99.90;;;;;;6099210;23;20454;-92
2023/10/15 03:41:28;;;;;;;6.43;0.20;;;6.90;99.90;;;;;;6099659;23;20375;-92
2023/10/15 03:44:02;;;;;;;7.53;0.30;;;6.80;99.90;;;;;;6100345;23;20374;-91
2023/10/15 03:46:33;;;;;;;8.85;0.50;;;6.90;99.90;;;;;;6098413;23;20425;-92
2023/10/15 03:49:00;;;;;;;10.00;0.50;;;6.90;99.90;;;;;;6100858;23;20383;-92
2023/10/15 03:51:27;;;;;;;6.85;0.30;;;7.10;99.90;;;;;;6098322;23;20525;-92
2023/10/15 03:53:52;;;;;;;9.75;0.40;;;7.10;99.90;;;;;;6099877;23;20887;-92
2023/10/15 03:56:27;;;;;;;7.45;0.30;;;7.00;99.90;;;;;;6099112;23;20375;-92
2023/10/15 03:58:53;;;;;;;4.00;0.20;;;7.00;99.90;;;;;;6098931;23;20461;-91
2023/10/15 04:01:20;;;;;;;8.13;0.40;;;6.90;99.90;;;;;;6100140;23;20728;-91
2023/10/15 04:03:49;;;;;;;6.70;0.30;;;6.90;99.90;;;;;;6098453;23;20701;-93
2023/10/15 04:06:17;;;;;;;8.20;0.35;;;6.90;99.90;;;;;;6104981;23;20427;-91
2023/10/15 04:09:17;;;;;;;5.07;0.30;;;6.90;99.90;;;;;;6127510;23;20384;-91
2023/10/15 04:11:42;;;;;;;9.50;0.55;;;6.90;99.90;;;;;;6150577;23;20408;-92
2023/10/15 04:14:26;;;;;;;9.48;0.70;;;7.00;99.90;;;;;;6129213;23;20427;-92
2023/10/15 04:16:52;;;;;;;7.82;0.30;;;6.90;99.90;;;;;;6126755;23;20624;-91
2023/10/15 04:19:18;;;;;;;6.43;0.30;;;6.90;99.90;;;;;;6127592;23;20393;-92
2023/10/15 04:21:45;;;;;;;7.03;0.40;;;6.90;99.90;;;;;;6126046;23;20452;-92
2023/10/15 04:24:18;;;;;;;8.60;0.30;;;7.10;99.90;;;;;;6127669;23;20381;-91
2023/10/15 04:26:48;;;;;;;9.70;0.30;;;6.80;99.90;;;;;;6128461;23;20385;-92
2023/10/15 04:29:17;;;;;;;9.73;0.40;;;6.80;99.90;;;;;;6127948;23;20738;-92
2023/10/15 04:31:45;;;;;;;5.43;0.30;;;6.70;99.90;;;;;;6129833;23;20452;-91
2023/10/15 04:34:17;;;;;;;7.80;0.30;;;6.70;99.90;;;;;;6127134;23;20397;-92
2023/10/15 04:36:48;;;;;;;7.07;0.40;;;6.70;99.90;;;;;;6129503;23;20427;-90
2023/10/15 04:39:16;;;;;;;13.02;0.50;;;6.60;99.90;;;;;;6128584;23;20868;-91
2023/10/15 04:41:41;;;;;;;6.23;0.40;;;7.00;99.90;;;;;;6128786;23;20378;-90
2023/10/15 04:44:20;;;;;;;8.83;0.53;;;6.90;99.90;;;;;;6129142;23;20389;-91
2023/10/15 04:46:46;;;;;;;12.57;0.55;;;6.70;99.90;;;;;;6127572;23;20412;-91
2023/10/15 04:49:15;;;;;;;8.50;0.38;;;6.70;99.90;;;;;;6129608;23;20914;-91
2023/10/15 04:51:45;;;;;;;12.48;0.60;;;6.80;99.90;;;;;;6127549;23;20838;-92
2023/10/15 04:54:11;;;;;;;15.02;1.25;;;6.80;99.90;;;;;;6126560;23;20377;-91
2023/10/15 04:56:37;;;;;;;14.25;1.17;;;7.30;99.90;;;;;;6127437;23;20424;-91
2023/10/15 04:59:04;;;;;;;13.45;0.70;;;6.80;99.90;;;;;;6128249;23;20548;-92
2023/10/15 05:01:33;;;;;;;12.20;0.63;;;6.80;99.90;;;;;;6128937;23;20374;-90
2023/10/15 05:04:00;;;;;;;7.00;0.52;;;6.80;99.90;;;;;;6127412;23;20373;-91
2023/10/15 05:06:26;;;;;;;9.43;0.40;;;6.80;99.90;;;;;;6129778;23;20377;-91
2023/10/15 05:08:53;;;;;;;10.07;0.57;;;6.80;99.90;;;;;;6129121;23;20873;-91
2023/10/15 05:11:21;;;;;;;7.82;0.40;;;7.00;99.90;;;;;;6130550;23;20369;-92
2023/10/15 05:13:51;;;;;;;8.60;0.80;;;6.80;99.90;;;;;;6129089;23;20377;-93
2023/10/15 05:16:17;;;;;;;9.38;0.43;;;6.80;99.90;;;;;;6130843;23;20377;-92
2023/10/15 05:18:43;;;;;;;11.25;0.68;;;6.80;99.90;;;;;;6130862;23;20397;-92
2023/10/15 05:21:13;;;;;;;10.18;0.75;;;7.10;99.90;;;;;;6129291;23;20409;-92
2023/10/15 05:23:39;;;;;;;8.18;0.52;;;6.80;99.90;;;;;;6130528;23;20393;-91
2023/10/15 05:26:05;;;;;;;9.48;0.50;;;6.80;99.90;;;;;;6128391;23;20455;-92
2023/10/15 05:28:31;;;;;;;6.43;0.33;;;6.90;99.90;;;;;;6130821;23;20379;-92
2023/10/15 05:31:00;;;;;;;9.63;0.40;;;6.90;99.90;;;;;;6128516;23;20436;-92
2023/10/15 05:33:28;;;;;;;7.78;0.50;;;7.10;99.90;;;;;;6130195;23;20431;-92
2023/10/15 05:35:56;;;;;;;7.90;0.30;;;6.90;99.90;;;;;;6130209;23;20369;-92
2023/10/15 05:38:22;;;;;;;6.55;0.35;;;7.20;99.90;;;;;;6129129;23;20813;-93
2023/10/15 05:40:49;;;;;;;7.00;0.52;;;7.00;99.90;;;;;;6130936;23;20401;-91
2023/10/15 05:43:17;;;;;;;9.40;0.60;;;7.00;99.90;;;;;;6128636;23;20374;-91
2023/10/15 05:45:47;;;;;;;7.00;0.40;;;7.00;99.90;;;;;;6130358;23;20369;-93
2023/10/15 05:48:13;;;;;;;7.00;0.40;;;7.10;99.90;;;;;;6128738;23;20369;-91
2023/10/15 05:50:39;;;;;;;9.38;0.43;;;7.10;99.90;;;;;;6130487;23;20381;-93
2023/10/15 05:53:06;;;;;;;6.72;0.40;;;7.10;99.90;;;;;;6129791;23;20486;-93
2023/10/15 05:55:32;;;;;;;4.45;0.35;;;7.10;99.90;;;;;;6129294;23;20707;-92
2023/10/15 05:57:58;;;;;;;7.30;0.30;;;7.10;99.90;;;;;;6130215;23;20373;-92
2023/10/15 06:00:26;;;;;;;6.68;0.40;;;7.60;99.90;;;;;;6128781;23;20480;-93
2023/10/15 06:02:56;;;;;;;8.52;0.55;;;7.00;99.90;;;;;;6130316;23;20369;-92
2023/10/15 06:05:22;;;;;;;5.95;0.30;;;6.90;99.90;;;;;;6128928;23;20365;-92
2023/10/15 06:07:54;;;;;;;6.38;0.43;;;7.00;99.90;;;;;;6130036;23;20432;-93
2023/10/15 06:10:20;;;;;;;5.50;0.40;;;7.00;99.90;;;;;;6129787;23;20385;-92
2023/10/15 06:12:46;;;;;;;6.40;0.60;;;7.00;99.90;;;;;;6128873;23;20703;-92
2023/10/15 06:15:15;;;;;;;6.60;0.40;;;7.00;99.90;;;;;;6130181;23;20428;-95
2023/10/15 06:17:42;;;;;;;8.47;0.50;;;7.00;99.90;;;;;;6128363;23;20432;-93
2023/10/15 06:20:14;;;;;;;7.55;0.55;;;7.20;99.90;;;;;;6130487;23;20448;-93
2023/10/15 06:22:45;;;;;;;7.47;0.40;;;7.00;99.90;;;;;;6127626;23;20452;-94
2023/10/15 06:25:12;;;;;;;6.03;0.40;;;6.90;99.90;;;;;;6129687;23;20549;-93
2023/10/15 06:27:39;;;;;;;7.82;0.60;;;6.90;99.90;;;;;;6129165;23;20365;-92
2023/10/15 06:30:06;;;;;;;7.72;0.30;;;6.90;99.90;;;;;;6128448;23;20404;-92
2023/10/15 06:32:32;;;;;;;5.80;0.40;;;6.90;99.90;;;;;;6129622;23;20380;-94
2023/10/15 06:34:59;;;;;;;8.38;0.30;;;6.90;99.90;;;;;;6127855;23;20352;-93
2023/10/15 06:37:26;;;;;;;10.15;0.60;;;7.00;99.90;;;;;;6129925;23;20410;-93
2023/10/15 06:39:51;;;;;;;7.15;0.80;;;7.10;99.90;;;;;;6128065;23;20394;-93
2023/10/15 06:42:17;;;;;;;9.73;0.57;;;7.10;99.90;;;;;;6129088;23;20399;-92
2023/10/15 06:44:43;;;;;;;7.70;0.40;;;8.00;99.90;;;;;;6128138;23;20365;-92
2023/10/15 06:47:08;;;;;;;8.10;0.40;;;7.20;99.90;;;;;;6129307;23;20407;-92
2023/10/15 06:49:34;;;;;;;10.05;0.50;;;7.20;99.90;;;;;;6129469;23;20407;-94
2023/10/15 06:52:03;;;;;;;5.65;0.35;;;7.40;99.90;;;;;;6127425;23;20392;-93
2023/10/15 06:54:29;;;;;;;9.93;0.80;;;7.60;99.90;;;;;;6130059;23;20369;-94
2023/10/15 06:56:55;;;;;;;5.68;0.30;;;7.30;99.90;;;;;;6132244;23;20365;-90
2023/10/15 06:59:23;;;;;;;6.85;0.55;;;7.30;99.90;;;;;;6135597;23;20401;-95
2023/10/15 07:01:51;;;;;;;6.80;0.38;;;7.20;99.90;;;;;;6127099;23;20798;-96
2023/10/15 07:04:18;;;;;;;5.65;0.38;;;7.30;99.90;;;;;;6132048;23;20396;-94
2023/10/15 07:06:49;;;;;;;9.00;0.50;;;7.00;99.90;;;;;;6131949;23;20385;-96
2023/10/15 07:09:32;;;;;;;8.90;0.50;;;7.00;99.90;;;;;;6128959;23;20381;-95
2023/10/15 07:12:05;;;;;;;8.40;0.45;;;7.00;99.90;;;;;;6128825;23;20377;-95
2023/10/15 07:14:34;;;;;;;9.00;0.47;;;6.80;99.90;;;;;;6128780;23;20404;-95
2023/10/15 07:17:23;;;;;;;7.32;0.45;;;6.90;99.90;;;;;;6129901;23;20377;-96
2023/10/15 07:20:12;;;;;;;;;;;;;;;;;;;;;
2023/10/15 07:36:57;;;;;;;;;;;;;;;;;;;;;
2023/10/15 07:39:37;;;;;;;8.73;0.85;;;7.20;99.90;;;;;;6246908;22;20401;-96
2023/10/15 07:42:44;;;;;;;8.93;0.80;;;7.20;99.90;;;;;;6224426;22;20402;-96
2023/10/15 07:45:10;;;;;;;10.73;1.30;;;7.20;99.90;;;;;;6212315;22;20414;-96
2023/10/15 07:51:02;;;;;;;14.98;1.33;;;7.40;99.90;;;;;;6240731;22;20434;-96
2023/10/15 07:56:49;;;;;;;14.00;2.33;;;7.60;99.90;;;;;;6275540;22;20372;-96
2023/10/15 07:59:18;;;;;;;12.60;2.55;;;7.70;99.90;;;;;;6232214;22;20427;-95
2023/10/15 08:01:53;;;;;;;10.90;1.25;;;8.10;99.90;;;;;;6229159;22;20360;-96
2023/10/15 08:04:55;;;;;;;11.35;0.70;;;8.20;99.90;;;;;;6231594;22;20366;-96
2023/10/15 08:07:26;;;;;;;9.82;0.82;;;8.30;99.90;;;;;;6056037;23;20384;-96
2023/10/15 08:10:42;;;;;;;9.68;0.60;;;8.20;99.90;;;;;;6052627;23;20372;-96
2023/10/15 08:13:27;;;;;;;5.63;0.50;;;8.40;99.90;;;;;;6049014;23;20517;-96
2023/10/15 08:15:52;;;;;;;7.28;0.60;;;8.30;99.90;;;;;;6124755;23;20368;-95
2023/10/15 08:18:18;;;;;;;9.87;0.73;;;8.60;99.90;;;;;;6157890;23;20383;-93
2023/10/15 08:20:46;;;;;;;9.50;0.50;;;8.20;99.90;;;;;;6160385;23;20624;-96
2023/10/15 08:23:13;;;;;;;7.45;0.65;;;8.30;99.90;;;;;;6161595;23;20391;-94
2023/10/15 08:25:39;;;;;;;8.18;0.40;;;8.20;99.90;;;;;;6154778;23;20395;-94
2023/10/15 08:28:05;;;;;;;9.43;0.57;;;7.90;99.90;;;;;;6156420;23;20367;-95
2023/10/15 08:30:32;;;;;;;8.90;0.50;;;8.00;99.90;;;;;;6155866;23;20426;-94
2023/10/15 08:32:58;;;;;;;9.68;0.60;;;7.80;99.90;;;;;;6156760;23;20380;-94
2023/10/15 08:35:24;;;;;;;7.93;0.80;;;7.80;99.90;;;;;;6160503;23;20405;-94
2023/10/15 08:37:50;;;;;;;9.80;0.50;;;7.70;99.90;;;;;;6170382;23;20397;-93
2023/10/15 08:40:17;;;;;;;10.43;0.60;;;7.70;99.90;;;;;;6213035;22;20393;-91
2023/10/15 08:42:51;;;;;;;7.47;0.83;;;7.90;99.90;;;;;;6219399;22;20418;-92
2023/10/15 08:45:21;;;;;;;7.85;0.60;;;8.00;99.90;;;;;;6219555;22;20984;-93
2023/10/15 08:47:48;;;;;;;5.82;0.30;;;8.00;99.90;;;;;;6218959;22;20443;-91
2023/10/15 08:50:16;;;;;;;8.20;0.43;;;8.30;99.90;;;;;;6220278;22;20383;-92
2023/10/15 08:52:45;;;;;;;7.95;0.40;;;8.40;99.90;;;;;;6218441;22;20380;-91
2023/10/15 08:55:11;;;;;;;8.20;0.95;;;8.60;99.90;;;;;;6219612;22;20372;-92
2023/10/15 08:57:38;;;;;;;6.23;0.40;;;8.70;99.90;;;;;;6219748;22;20807;-92
2023/10/15 09:00:04;;;;;;;7.18;0.30;;;8.90;99.90;;;;;;6219048;22;20387;-91
2023/10/15 09:02:30;;;;;;;7.63;0.30;;;9.20;99.90;;;;;;6220045;22;20466;-92
2023/10/15 09:04:56;;;;;;;5.23;0.40;;;9.40;99.90;;;;;;6219128;22;20368;-93
2023/10/15 09:07:24;;;;;;;5.03;0.50;;;9.30;99.90;;;;;;6219924;22;20848;-93
2023/10/15 09:09:51;;;;;;;4.20;0.22;;;9.20;99.90;;;;;;6218062;22;20364;-92
2023/10/15 09:12:18;;;;;;;4.28;0.50;;;9.20;99.90;;;;;;6220307;22;20396;-91
2023/10/15 09:14:45;;;;;;;4.03;0.30;;;9.40;99.90;;;;;;6219410;22;20391;-92
2023/10/15 09:17:16;;;;;;;6.18;0.40;;;9.20;99.90;;;;;;6244314;22;20367;-92
2023/10/15 09:19:43;;;;;;;5.30;0.30;;;9.20;99.90;;;;;;6219503;22;21169;-91
2023/10/15 09:22:16;;;;;;;4.82;0.20;;;9.40;99.90;;;;;;6219162;22;20404;-91
2023/10/15 09:24:46;;;;;;;8.52;0.50;;;9.60;99.90;;;;;;6218679;22;20379;-90
2023/10/15 09:27:13;;;;;;;10.80;0.50;;;9.30;99.90;;;;;;6219039;22;20780;-91
2023/10/15 09:29:40;;;;;;;10.87;0.57;;;9.00;99.90;;;;;;6219808;22;20709;-90
2023/10/15 09:32:06;;;;;;;10.05;0.60;;;8.70;99.90;;;;;;6218960;22;20364;-93
2023/10/15 09:34:33;;;;;;;8.25;0.60;;;8.40;99.90;;;;;;6219877;22;20502;-92
2023/10/15 09:36:59;;;;;;;9.82;0.52;;;8.10;99.90;;;;;;6219921;22;20380;-95
2023/10/15 09:39:29;;;;;;;9.23;0.60;;;7.90;99.90;;;;;;6218763;22;20392;-92
2023/10/15 09:41:56;;;;;;;6.10;0.40;;;7.70;99.90;;;;;;6219611;22;20441;-94
2023/10/15 09:44:22;;;;;;;6.45;0.50;;;7.90;99.90;;;;;;6218618;22;20372;-93
2023/10/15 09:46:48;;;;;;;11.05;1.08;;;8.10;99.90;;;;;;6220039;22;20364;-90
2023/10/15 09:49:15;;;;;;;7.10;0.40;;;8.70;99.90;;;;;;6219231;22;20496;-92
2023/10/15 09:51:42;;;;;;;8.95;0.60;;;8.30;99.90;;;;;;6219255;22;20376;-90
2023/10/15 09:54:11;;;;;;;7.22;0.60;;;8.90;99.90;;;;;;6219093;22;20671;-91
2023/10/15 09:56:41;;;;;;;6.63;0.57;;;8.60;99.90;;;;;;6218851;22;20403;-90
2023/10/15 09:59:07;;;;;;;9.13;0.80;;;9.40;99.90;;;;;;6219007;22;20458;-89
2023/10/15 10:01:36;;;;;;;6.28;0.47;;;9.00;99.90;;;;;;6216556;22;20400;-92
2023/10/15 10:04:45;;;;;;;7.05;0.43;;;9.50;99.90;;;;;;6218033;22;20392;-91
2023/10/15 10:07:17;;;;;;;10.60;0.90;;;9.40;99.90;;;;;;6243060;22;20426;-89
2023/10/15 10:10:04;;;;;;;8.15;0.80;;;9.70;99.90;;;;;;6217334;22;20368;-91
2023/10/15 10:13:11;;;;;;;5.50;0.50;;;10.20;99.90;;;;;;6219738;22;20829;-94
2023/10/15 10:15:42;;;;;;;6.07;0.50;;;10.20;99.90;;;;;;6226044;22;20371;-93
2023/10/15 10:18:11;;;;;;;5.65;0.50;;;9.50;99.90;;;;;;6195457;22;20447;-93
2023/10/15 10:20:38;;;;;;;5.32;0.35;;;9.20;99.90;;;;;;6219651;22;20388;-92
2023/10/15 10:23:06;;;;;;;3.80;0.20;;;9.00;99.90;;;;;;6218624;22;20396;-93
2023/10/15 10:25:58;;;;;;;5.10;0.43;;;9.50;99.90;;;;;;6219023;22;20444;-93
2023/10/15 10:28:25;;;;;;;5.17;0.20;;;8.60;99.90;;;;;;6218104;22;20453;-91
2023/10/15 10:30:59;;;;;;;2.63;0.10;;;8.50;99.90;;;;;;6219478;22;20368;-93
2023/10/15 10:33:43;;;;;;;4.82;0.22;;;9.10;99.90;;;;;;6218774;22;20368;-92
2023/10/15 10:36:12;;;;;;;5.35;0.45;;;8.80;99.90;;;;;;6218576;22;20415;-91
2023/10/15 10:38:39;;;;;;;5.53;0.75;;;8.70;99.90;;;;;;6219013;22;20372;-91
2023/10/15 10:41:12;;;;;;;4.63;0.20;;;8.80;99.90;;;;;;6217879;22;20860;-92
2023/10/15 10:43:40;;;;;;;6.88;0.60;;;9.30;99.90;;;;;;6219480;22;20403;-91
2023/10/15 10:46:07;;;;;;;6.38;0.35;;;10.10;99.90;;;;;;6217946;22;20364;-92
2023/10/15 10:48:35;;;;;;;6.43;0.50;;;10.10;99.90;;;;;;6218972;22;20451;-91
2023/10/15 10:51:15;;;;;;;5.82;0.30;;;10.80;99.90;;;;;;6219057;22;20375;-94
2023/10/15 10:53:56;;;;;;;6.72;0.40;;;11.00;99.90;;;;;;6218441;22;20375;-93
2023/10/15 10:56:23;;;;;;;6.45;0.35;;;10.90;99.90;;;;;;6218728;22;20372;-92
2023/10/15 10:58:52;;;;;;;7.80;0.40;;;11.10;99.90;;;;;;6217718;22;20360;-92
2023/10/15 11:01:19;;;;;;;6.07;0.30;;;11.90;99.90;;;;;;6218310;22;20755;-93
2023/10/15 11:03:47;;;;;;;5.82;0.43;;;11.80;99.90;;;;;;6217650;22;20368;-93
2023/10/15 11:06:15;;;;;;;5.95;0.47;;;11.80;99.90;;;;;;6217804;22;20364;-94
2023/10/15 11:08:41;;;;;;;6.45;0.40;;;12.00;99.90;;;;;;6218230;22;21030;-93
2023/10/15 11:11:09;;;;;;;6.90;0.40;;;12.40;99.90;;;;;;6217417;22;20363;-92
2023/10/15 11:13:35;;;;;;;4.78;0.45;;;12.30;99.90;;;;;;6218507;22;20376;-92
2023/10/15 11:16:00;;;;;;;3.28;0.28;;;12.50;99.90;;;;;;6217804;22;20361;-92
2023/10/15 11:18:26;;;;;;;4.68;0.30;;;12.20;99.90;;;;;;6220371;22;20378;-92
2023/10/15 11:20:52;;;;;;;3.50;0.40;;;12.20;99.90;;;;;;6219141;22;20657;-94
2023/10/15 11:23:19;;;;;;;4.37;0.40;;;12.00;99.90;;;;;;6217531;22;20788;-94
2023/10/15 11:25:45;;;;;;;4.97;0.35;;;11.40;99.90;;;;;;6217707;22;20375;-93
2023/10/15 11:28:12;;;;;;;3.28;0.30;;;11.70;99.90;;;;;;6217397;22;20357;-93
2023/10/15 11:30:44;;;;;;;3.38;0.30;;;11.30;99.90;;;;;;6217791;22;20367;-93
2023/10/15 11:33:10;;;;;;;3.65;0.20;;;11.30;99.90;;;;;;6216843;22;20458;-94
2023/10/15 11:35:37;;;;;;;3.22;0.40;;;11.10;99.90;;;;;;6217965;22;20753;-94
2023/10/15 11:38:15;;;;;;;4.22;0.35;;;10.90;99.90;;;;;;6218397;22;20368;-94
2023/10/15 11:40:41;;;;;;;4.47;0.45;;;10.40;99.90;;;;;;6216859;22;20495;-94
2023/10/15 11:43:17;;;;;;;5.10;0.20;;;10.50;99.90;;;;;;6217477;22;20400;-94
2023/10/15 11:45:45;;;;;;;6.32;0.57;;;10.40;99.90;;;;;;6216391;22;20360;-94
2023/10/15 11:48:13;;;;;;;4.68;0.30;;;9.90;99.90;;;;;;6217707;22;20460;-94
2023/10/15 11:50:40;;;;;;;4.80;0.40;;;10.50;99.90;;;;;;6216383;22;20360;-94
2023/10/15 11:53:23;;;;;;;6.22;0.30;;;10.50;99.90;;;;;;6217785;22;20693;-94
2023/10/15 11:55:55;;;;;;;5.60;0.33;;;10.50;99.90;;;;;;6219528;22;20371;-95
2023/10/15 11:58:23;;;;;;;6.38;0.50;;;10.80;99.90;;;;;;6224995;22;20391;-94
2023/10/15 12:00:52;;;;;;;14.82;0.73;;;10.70;99.90;;;;;;6220513;22;20388;-94
2023/10/15 12:03:20;;;;;;;6.95;0.50;;;10.80;99.90;;;;;;6216355;22;20364;-94
2023/10/15 12:05:46;;;;;;;4.95;0.47;;;10.80;99.90;;;;;;6217348;22;20379;-94
2023/10/15 12:08:12;;;;;;;7.72;0.35;;;11.10;99.90;;;;;;6216230;22;20368;-94
2023/10/15 12:10:42;;;;;;;5.50;0.32;;;10.70;99.90;;;;;;6219075;22;20368;-94
2023/10/15 12:13:14;;;;;;;4.82;0.30;;;10.80;99.90;;;;;;6216711;22;20372;-95
2023/10/15 12:15:41;;;;;;;4.88;0.40;;;11.20;99.90;;;;;;6217380;22;20396;-94
2023/10/15 12:18:07;;;;;;;3.30;0.30;;;11.80;99.90;;;;;;6217207;22;20368;-94
2023/10/15 12:20:33;;;;;;;3.97;0.20;;;11.80;99.90;;;;;;6216254;22;20396;-95
2023/10/15 12:22:58;;;;;;;4.55;0.47;;;11.80;99.90;;;;;;6217042;22;20456;-96
2023/10/15 12:25:24;;;;;;;4.85;0.38;;;11.60;99.90;;;;;;6216771;22;20851;-95
2023/10/15 12:27:50;;;;;;;4.28;0.38;;;11.70;99.90;;;;;;6217685;22;20369;-95
2023/10/15 12:30:23;;;;;;;3.67;0.30;;;12.20;99.90;;;;;;6215860;22;20379;-95
2023/10/15 12:32:58;;;;;;;5.85;0.50;;;12.00;99.90;;;;;;6218415;22;20426;-96
2023/10/15 12:35:24;;;;;;;6.80;0.60;;;11.80;99.90;;;;;;6217915;22;21011;-95
2023/10/15 12:37:58;;;;;;;4.97;0.40;;;11.70;99.90;;;;;;6216643;22;20404;-93
2023/10/15 12:40:31;;;;;;;4.25;0.40;;;11.60;99.90;;;;;;6217037;22;20395;-95
2023/10/15 12:42:59;;;;;;;6.93;0.52;;;11.90;99.90;;;;;;6217274;22;20374;-92
2023/10/15 12:45:25;;;;;;;5.63;0.30;;;12.00;99.90;;;;;;6218246;22;20360;-93
2023/10/15 12:47:51;;;;;;;4.15;0.40;;;12.20;99.90;;;;;;6217400;22;20797;-94
2023/10/15 12:50:17;;;;;;;6.93;0.50;;;11.70;99.90;;;;;;6218769;22;20361;-96
2023/10/15 12:52:49;;;;;;;6.47;0.32;;;11.80;99.90;;;;;;6217246;22;20367;-93
2023/10/15 12:55:15;;;;;;;5.57;0.40;;;11.60;99.90;;;;;;6219881;22;20379;-95
2023/10/15 12:57:46;;;;;;;4.82;0.43;;;11.40;99.90;;;;;;6219053;22;20422;-96
2023/10/15 13:00:28;;;;;;;6.00;0.43;;;11.10;99.90;;;;;;6251911;22;20859;-96
2023/10/15 13:02:54;;;;;;;7.45;0.30;;;11.90;99.90;;;;;;6222294;22;20372;-93
2023/10/15 13:05:25;;;;;;;6.10;0.50;;;11.10;99.90;;;;;;6219711;22;20367;-94
2023/10/15 13:07:53;;;;;;;6.35;0.60;;;11.40;99.90;;;;;;6217650;22;21166;-94
2023/10/15 13:10:21;;;;;;;5.50;0.50;;;11.30;99.90;;;;;;6216191;22;20364;-95
2023/10/15 13:12:48;;;;;;;7.25;0.68;;;11.40;99.90;;;;;;6217972;22;20371;-94
2023/10/15 13:15:16;;;;;;;7.33;0.60;;;11.80;99.90;;;;;;6216311;22;20372;-92
2023/10/15 13:17:42;;;;;;;6.32;0.47;;;11.70;99.90;;;;;;6217328;22;20840;-93
2023/10/15 13:20:17;;;;;;;5.55;0.73;;;11.30;99.90;;;;;;6222322;22;20388;-95
2023/10/15 13:22:44;;;;;;;5.05;0.50;;;11.40;99.90;;;;;;6221573;22;20410;-93
2023/10/15 13:25:11;;;;;;;6.80;0.60;;;11.80;99.90;;;;;;6220640;22;20424;-94
2023/10/15 13:27:43;;;;;;;5.68;0.50;;;11.30;99.90;;;;;;6220909;22;20384;-96
2023/10/15 13:30:15;;;;;;;4.47;0.32;;;11.20;99.90;;;;;;6221739;22;20764;-95
2023/10/15 13:32:41;;;;;;;5.95;0.40;;;11.20;99.90;;;;;;6219963;22;20364;-94
2023/10/15 13:35:10;;;;;;;5.43;0.50;;;11.10;99.90;;;;;;6219063;22;20447;-94
2023/10/15 13:37:39;;;;;;;6.95;0.40;;;11.40;99.90;;;;;;6218391;22;20364;-94
2023/10/15 13:40:10;;;;;;;6.35;0.50;;;11.10;99.90;;;;;;6218515;22;20392;-94
2023/10/15 13:42:42;;;;;;;6.38;0.70;;;11.00;99.90;;;;;;6219032;22;20371;-95
2023/10/15 13:45:10;;;;;;;8.05;0.70;;;11.00;99.90;;;;;;6218111;22;20418;-95
2023/10/15 13:47:36;;;;;;;6.85;0.60;;;11.00;99.90;;;;;;6221119;22;20399;-95
2023/10/15 13:50:07;;;;;;;6.78;0.40;;;11.10;99.90;;;;;;6217963;22;20373;-95
2023/10/15 13:52:39;;;;;;;6.72;0.50;;;11.20;99.90;;;;;;6219982;22;20408;-93
2023/10/15 13:55:07;;;;;;;7.05;0.40;;;11.30;99.90;;;;;;6218938;22;20372;-96
2023/10/15 13:57:34;;;;;;;5.97;0.70;;;11.30;99.90;;;;;;6218496;22;20447;-94
2023/10/15 14:00:00;;;;;;;6.13;0.82;;;11.50;99.90;;;;;;6218526;22;20389;-93
2023/10/15 14:02:26;;;;;;;7.97;0.73;;;11.50;99.90;;;;;;6217987;22;20369;-92
2023/10/15 14:04:53;;;;;;;8.10;0.70;;;11.10;99.90;;;;;;6219155;22;21039;-92
2023/10/15 14:07:19;;;;;;;7.28;0.70;;;11.00;99.90;;;;;;6218166;22;20365;-93
2023/10/15 14:09:44;;;;;;;7.25;0.45;;;11.20;99.90;;;;;;6219038;22;20458;-93
2023/10/15 14:12:10;;;;;;;5.47;0.37;;;10.60;99.90;;;;;;6218165;22;20889;-95
2023/10/15 14:14:39;;;;;;;3.67;0.28;;;10.70;99.90;;;;;;6219922;22;20467;-94
2023/10/15 14:17:05;;;;;;;5.25;0.40;;;10.70;99.90;;;;;;6220085;22;20364;-94
2023/10/15 14:19:33;;;;;;;4.47;0.22;;;10.60;99.90;;;;;;6217965;22;20392;-93
2023/10/15 14:21:59;;;;;;;5.00;0.20;;;10.20;99.90;;;;;;6218998;22;20371;-95
2023/10/15 14:24:25;;;;;;;7.63;0.35;;;10.30;99.90;;;;;;6218422;22;20369;-93
2023/10/15 14:26:51;;;;;;;6.07;0.60;;;10.40;99.90;;;;;;6221747;22;21063;-93
2023/10/15 14:29:17;;;;;;;5.47;0.30;;;10.20;99.90;;;;;;6218215;22;20703;-95
2023/10/15 14:31:43;;;;;;;6.57;0.50;;;10.10;99.90;;;;;;6218901;22;20403;-91
2023/10/15 14:34:09;;;;;;;7.65;0.65;;;10.20;99.90;;;;;;6218963;22;20384;-94
2023/10/15 14:36:39;;;;;;;6.45;0.47;;;10.20;99.90;;;;;;6219084;22;20372;-94
2023/10/15 14:39:08;;;;;;;6.30;0.40;;;9.80;99.90;;;;;;6218850;22;20451;-94
2023/10/15 14:41:37;;;;;;;5.35;0.30;;;9.90;99.90;;;;;;6220162;22;20365;-94
2023/10/15 14:44:02;;;;;;;5.93;0.40;;;9.90;99.90;;;;;;6218143;22;20376;-95
2023/10/15 14:46:29;;;;;;;3.93;0.60;;;9.90;99.90;;;;;;6217960;22;20367;-94
2023/10/15 14:48:54;;;;;;;3.83;0.32;;;9.40;99.90;;;;;;6218751;22;20364;-94
2023/10/15 14:51:20;;;;;;;4.57;0.40;;;10.10;99.90;;;;;;6218793;22;20366;-93
2023/10/15 14:53:46;;;;;;;3.72;0.30;;;10.20;99.90;;;;;;6218382;22;20436;-93
2023/10/15 14:56:11;;;;;;;3.75;0.30;;;10.40;99.90;;;;;;6217822;22;20376;-91
2023/10/15 14:58:37;;;;;;;4.70;0.40;;;10.30;99.90;;;;;;6218246;22;20380;-92
2023/10/15 15:01:03;;;;;;;3.33;0.20;;;10.40;99.90;;;;;;6218739;22;20462;-93
2023/10/15 15:03:31;;;;;;;3.67;0.30;;;10.40;99.90;;;;;;6217836;22;20368;-94
2023/10/15 15:05:57;;;;;;;4.22;0.40;;;10.50;99.90;;;;;;6219258;22;20365;-93
2023/10/15 15:08:23;;;;;;;4.28;0.30;;;10.70;99.90;;;;;;6218150;22;20361;-94
2023/10/15 15:10:48;;;;;;;4.20;0.50;;;10.90;99.90;;;;;;6218681;22;20697;-93
2023/10/15 15:13:14;;;;;;;4.33;0.40;;;10.60;99.90;;;;;;6218777;22;20372;-93
2023/10/15 15:15:43;;;;;;;4.93;0.30;;;10.50;99.90;;;;;;6218166;22;20849;-93
2023/10/15 15:18:09;;;;;;;3.80;0.40;;;10.70;99.90;;;;;;6218776;22;20376;-92
2023/10/15 15:20:35;;;;;;;6.65;0.40;;;10.40;99.90;;;;;;6217077;22;20388;-91
2023/10/15 15:23:02;;;;;;;6.05;0.63;;;10.60;99.90;;;;;;6217398;22;20361;-90
2023/10/15 15:25:28;;;;;;;5.10;0.35;;;10.30;99.90;;;;;;6216466;22;20348;-93
2023/10/15 15:27:54;;;;;;;7.47;0.50;;;10.30;99.90;;;;;;6219014;22;20377;-93
2023/10/15 15:30:21;;;;;;;5.22;0.30;;;10.40;99.90;;;;;;6217897;22;20375;-91
2023/10/15 15:32:48;;;;;;;5.38;0.40;;;10.10;99.90;;;;;;6218483;22;20392;-92
2023/10/15 15:35:14;;;;;;;3.45;0.30;;;9.90;99.90;;;;;;6218136;22;20383;-93
2023/10/15 15:37:41;;;;;;;7.80;0.60;;;10.00;99.90;;;;;;6217713;22;20867;-92